sensor_id;sensor_type;location;lat;lon;timestamp;temperature;humidity
64869;DHT22;51349;52.424;10.840;2022-09-03T00:01:58;15.30;88.50
64869;DHT22;51349;52.424;10.840;2022-09-03T00:07:07;15.30;88.70
64869;DHT22;51349;52.424;10.840;2022-09-03T00:12:18;15.20;88.50
64869;DHT22;51349;52.424;10.840;2022-09-03T00:17:37;15.00;88.90
64869;DHT22;51349;52.424;10.840;2022-09-03T00:22:56;14.90;89.00
64869;DHT22;51349;52.424;10.840;2022-09-03T00:27:57;14.80;89.40
64869;DHT22;51349;52.424;10.840;2022-09-03T00:33:10;14.70;89.90
64869;DHT22;51349;52.424;10.840;2022-09-03T00:38:13;14.70;90.00
64869;DHT22;51349;52.424;10.840;2022-09-03T00:48:50;14.50;90.10
64869;DHT22;51349;52.424;10.840;2022-09-03T01:04:32;14.10;91.60
64869;DHT22;51349;52.424;10.840;2022-09-03T01:09:43;13.90;90.80
64869;DHT22;51349;52.424;10.840;2022-09-03T01:15:05;13.80;91.10
64869;DHT22;51349;52.424;10.840;2022-09-03T01:31:13;13.60;91.70
64869;DHT22;51349;52.424;10.840;2022-09-03T01:36:23;13.50;91.60
64869;DHT22;51349;52.424;10.840;2022-09-03T01:41:52;13.30;92.50
64869;DHT22;51349;52.424;10.840;2022-09-03T01:57:53;12.80;93.50
64869;DHT22;51349;52.424;10.840;2022-09-03T02:03:03;12.50;93.60
64869;DHT22;51349;52.424;10.840;2022-09-03T02:08:07;12.30;94.30
64869;DHT22;51349;52.424;10.840;2022-09-03T02:13:18;12.30;94.40
64869;DHT22;51349;52.424;10.840;2022-09-03T02:18:27;12.20;94.70
64869;DHT22;51349;52.424;10.840;2022-09-03T02:23:30;12.10;94.60
64869;DHT22;51349;52.424;10.840;2022-09-03T02:28:31;12.00;95.00
64869;DHT22;51349;52.424;10.840;2022-09-03T02:33:36;11.90;95.40
64869;DHT22;51349;52.424;10.840;2022-09-03T02:38:40;12.00;95.40
64869;DHT22;51349;52.424;10.840;2022-09-03T02:44:06;11.90;95.80
64869;DHT22;51349;52.424;10.840;2022-09-03T02:49:05;11.70;95.90
64869;DHT22;51349;52.424;10.840;2022-09-03T02:54:07;11.60;96.50
64869;DHT22;51349;52.424;10.840;2022-09-03T02:59:09;11.40;96.40
64869;DHT22;51349;52.424;10.840;2022-09-03T03:04:10;11.30;97.10
64869;DHT22;51349;52.424;10.840;2022-09-03T03:09:10;11.10;97.40
64869;DHT22;51349;52.424;10.840;2022-09-03T03:14:11;11.20;97.80
64869;DHT22;51349;52.424;10.840;2022-09-03T03:19:12;11.30;97.90
64869;DHT22;51349;52.424;10.840;2022-09-03T03:24:13;11.30;98.00
64869;DHT22;51349;52.424;10.840;2022-09-03T03:29:15;11.20;98.30
64869;DHT22;51349;52.424;10.840;2022-09-03T03:34:20;11.10;98.10
64869;DHT22;51349;52.424;10.840;2022-09-03T03:39:21;11.10;98.10
64869;DHT22;51349;52.424;10.840;2022-09-03T03:44:22;11.10;98.70
64869;DHT22;51349;52.424;10.840;2022-09-03T03:49:22;11.00;99.00
64869;DHT22;51349;52.424;10.840;2022-09-03T03:54:23;11.00;99.30
64869;DHT22;51349;52.424;10.840;2022-09-03T03:59:24;10.90;99.50
64869;DHT22;51349;52.424;10.840;2022-09-03T04:04:24;10.80;99.70
64869;DHT22;51349;52.424;10.840;2022-09-03T04:09:25;10.80;99.70
64869;DHT22;51349;52.424;10.840;2022-09-03T04:14:26;10.50;99.90
64869;DHT22;51349;52.424;10.840;2022-09-03T04:19:27;10.30;99.90
64869;DHT22;51349;52.424;10.840;2022-09-03T04:24:29;10.20;99.90
64869;DHT22;51349;52.424;10.840;2022-09-03T04:29:30;10.10;99.90
64869;DHT22;51349;52.424;10.840;2022-09-03T04:34:30;10.00;99.90
64869;DHT22;51349;52.424;10.840;2022-09-03T04:39:31;9.90;99.90
64869;DHT22;51349;52.424;10.840;2022-09-03T04:44:32;9.90;99.90
64869;DHT22;51349;52.424;10.840;2022-09-03T04:49:36;10.00;99.90
64869;DHT22;51349;52.424;10.840;2022-09-03T04:54:39;9.80;99.90
64869;DHT22;51349;52.424;10.840;2022-09-03T04:59:40;9.90;99.90
64869;DHT22;51349;52.424;10.840;2022-09-03T05:04:42;9.90;99.90
64869;DHT22;51349;52.424;10.840;2022-09-03T05:09:42;10.00;99.90
64869;DHT22;51349;52.424;10.840;2022-09-03T05:14:43;10.10;99.90
64869;DHT22;51349;52.424;10.840;2022-09-03T05:19:44;10.20;99.90
64869;DHT22;51349;52.424;10.840;2022-09-03T05:24:44;10.30;99.90
64869;DHT22;51349;52.424;10.840;2022-09-03T05:29:45;10.40;99.90
64869;DHT22;51349;52.424;10.840;2022-09-03T05:34:46;10.60;99.90
64869;DHT22;51349;52.424;10.840;2022-09-03T05:39:46;10.60;99.90
64869;DHT22;51349;52.424;10.840;2022-09-03T05:44:47;10.80;99.90
64869;DHT22;51349;52.424;10.840;2022-09-03T05:49:48;10.90;99.90
64869;DHT22;51349;52.424;10.840;2022-09-03T05:54:49;11.10;99.90
64869;DHT22;51349;52.424;10.840;2022-09-03T05:59:50;11.30;99.90
64869;DHT22;51349;52.424;10.840;2022-09-03T06:04:51;11.40;99.90
64869;DHT22;51349;52.424;10.840;2022-09-03T06:09:51;11.50;99.90
64869;DHT22;51349;52.424;10.840;2022-09-03T06:14:54;11.70;99.90
64869;DHT22;51349;52.424;10.840;2022-09-03T06:19:54;11.80;99.90
64869;DHT22;51349;52.424;10.840;2022-09-03T06:24:55;12.10;99.90
64869;DHT22;51349;52.424;10.840;2022-09-03T06:29:56;12.20;99.90
64869;DHT22;51349;52.424;10.840;2022-09-03T06:34:57;12.60;99.90
64869;DHT22;51349;52.424;10.840;2022-09-03T06:39:58;12.70;99.90
64869;DHT22;51349;52.424;10.840;2022-09-03T06:44:59;13.00;99.90
64869;DHT22;51349;52.424;10.840;2022-09-03T06:50:00;13.20;99.90
64869;DHT22;51349;52.424;10.840;2022-09-03T06:55:01;13.60;99.90
64869;DHT22;51349;52.424;10.840;2022-09-03T07:00:03;14.00;99.80
64869;DHT22;51349;52.424;10.840;2022-09-03T07:05:04;14.10;99.70
64869;DHT22;51349;52.424;10.840;2022-09-03T07:10:06;14.40;99.20
64869;DHT22;51349;52.424;10.840;2022-09-03T07:15:07;14.70;98.70
64869;DHT22;51349;52.424;10.840;2022-09-03T07:20:08;14.90;97.40
64869;DHT22;51349;52.424;10.840;2022-09-03T07:25:09;15.20;97.30
64869;DHT22;51349;52.424;10.840;2022-09-03T07:30:11;15.50;96.70
64869;DHT22;51349;52.424;10.840;2022-09-03T07:35:12;15.80;96.10
64869;DHT22;51349;52.424;10.840;2022-09-03T07:40:13;16.20;95.60
64869;DHT22;51349;52.424;10.840;2022-09-03T07:45:15;16.50;94.60
64869;DHT22;51349;52.424;10.840;2022-09-03T07:50:16;16.70;94.20
64869;DHT22;51349;52.424;10.840;2022-09-03T07:55:17;17.10;93.50
64869;DHT22;51349;52.424;10.840;2022-09-03T08:00:21;17.70;94.10
64869;DHT22;51349;52.424;10.840;2022-09-03T08:05:22;18.60;92.40
64869;DHT22;51349;52.424;10.840;2022-09-03T08:10:26;18.60;92.20
64869;DHT22;51349;52.424;10.840;2022-09-03T08:15:31;19.50;89.80
64869;DHT22;51349;52.424;10.840;2022-09-03T08:20:32;19.90;87.60
64869;DHT22;51349;52.424;10.840;2022-09-03T08:25:33;20.00;90.50
64869;DHT22;51349;52.424;10.840;2022-09-03T08:30:34;19.80;85.70
64869;DHT22;51349;52.424;10.840;2022-09-03T08:35:35;20.40;87.30
64869;DHT22;51349;52.424;10.840;2022-09-03T08:40:36;20.90;83.40
64869;DHT22;51349;52.424;10.840;2022-09-03T08:45:37;21.50;84.90
64869;DHT22;51349;52.424;10.840;2022-09-03T08:50:44;22.20;85.30
64869;DHT22;51349;52.424;10.840;2022-09-03T08:55:52;22.50;84.40
64869;DHT22;51349;52.424;10.840;2022-09-03T09:01:21;23.20;77.00
64869;DHT22;51349;52.424;10.840;2022-09-03T09:12:18;24.40;75.90
64869;DHT22;51349;52.424;10.840;2022-09-03T09:22:54;23.60;73.00
64869;DHT22;51349;52.424;10.840;2022-09-03T09:28:09;25.50;77.70
64869;DHT22;51349;52.424;10.840;2022-09-03T09:33:14;25.90;72.10
64869;DHT22;51349;52.424;10.840;2022-09-03T09:38:27;25.60;70.00
64869;DHT22;51349;52.424;10.840;2022-09-03T09:43:28;24.70;66.10
64869;DHT22;51349;52.424;10.840;2022-09-03T09:48:31;24.40;72.90
64869;DHT22;51349;52.424;10.840;2022-09-03T09:53:34;26.20;69.90
64869;DHT22;51349;52.424;10.840;2022-09-03T09:58:35;25.60;68.60
64869;DHT22;51349;52.424;10.840;2022-09-03T10:03:35;25.50;61.40
64869;DHT22;51349;52.424;10.840;2022-09-03T10:08:39;24.50;61.70
64869;DHT22;51349;52.424;10.840;2022-09-03T10:13:45;25.00;63.90
64869;DHT22;51349;52.424;10.840;2022-09-03T10:19:08;25.70;65.10
64869;DHT22;51349;52.424;10.840;2022-09-03T10:24:23;26.00;66.90
64869;DHT22;51349;52.424;10.840;2022-09-03T10:29:26;24.20;61.10
64869;DHT22;51349;52.424;10.840;2022-09-03T10:51:00;23.90;62.20
64869;DHT22;51349;52.424;10.840;2022-09-03T10:56:12;24.30;59.30
64869;DHT22;51349;52.424;10.840;2022-09-03T11:01:26;24.40;59.10
64869;DHT22;51349;52.424;10.840;2022-09-03T11:06:58;24.10;59.50
64869;DHT22;51349;52.424;10.840;2022-09-03T11:12:28;24.50;60.70
64869;DHT22;51349;52.424;10.840;2022-09-03T11:22:39;23.70;58.40
64869;DHT22;51349;52.424;10.840;2022-09-03T11:33:08;24.50;60.00
64869;DHT22;51349;52.424;10.840;2022-09-03T11:43:32;24.20;58.60
64869;DHT22;51349;52.424;10.840;2022-09-03T11:48:43;24.00;59.60
64869;DHT22;51349;52.424;10.840;2022-09-03T11:54:05;23.10;59.30
64869;DHT22;51349;52.424;10.840;2022-09-03T11:59:22;23.70;58.50
64869;DHT22;51349;52.424;10.840;2022-09-03T12:04:34;24.00;58.80
64869;DHT22;51349;52.424;10.840;2022-09-03T12:09:56;23.60;57.90
64869;DHT22;51349;52.424;10.840;2022-09-03T12:20:27;23.10;59.90
64869;DHT22;51349;52.424;10.840;2022-09-03T12:25:28;23.20;59.00
64869;DHT22;51349;52.424;10.840;2022-09-03T12:30:30;23.40;58.80
64869;DHT22;51349;52.424;10.840;2022-09-03T12:35:31;23.20;58.60
64869;DHT22;51349;52.424;10.840;2022-09-03T12:40:33;23.00;58.40
64869;DHT22;51349;52.424;10.840;2022-09-03T12:45:42;23.10;59.40
64869;DHT22;51349;52.424;10.840;2022-09-03T12:50:45;22.70;60.60
64869;DHT22;51349;52.424;10.840;2022-09-03T12:55:58;22.80;59.40
64869;DHT22;51349;52.424;10.840;2022-09-03T13:01:14;23.00;60.20
64869;DHT22;51349;52.424;10.840;2022-09-03T13:06:20;23.10;58.60
64869;DHT22;51349;52.424;10.840;2022-09-03T13:11:23;23.20;61.20
64869;DHT22;51349;52.424;10.840;2022-09-03T13:47:32;23.40;58.00
64869;DHT22;51349;52.424;10.840;2022-09-03T13:53:06;23.30;59.40
64869;DHT22;51349;52.424;10.840;2022-09-03T13:58:17;23.70;59.00
64869;DHT22;51349;52.424;10.840;2022-09-03T14:14:12;23.40;59.00
64869;DHT22;51349;52.424;10.840;2022-09-03T14:25:00;23.20;57.80
64869;DHT22;51349;52.424;10.840;2022-09-03T14:30:56;23.20;58.70
64869;DHT22;51349;52.424;10.840;2022-09-03T14:46:18;23.50;58.60
64869;DHT22;51349;52.424;10.840;2022-09-03T15:13:30;23.40;57.30
64869;DHT22;51349;52.424;10.840;2022-09-03T15:35:08;23.70;58.40
64869;DHT22;51349;52.424;10.840;2022-09-03T15:40:31;23.70;57.20
64869;DHT22;51349;52.424;10.840;2022-09-03T15:45:48;23.70;56.60
64869;DHT22;51349;52.424;10.840;2022-09-03T15:56:06;24.10;59.30
64869;DHT22;51349;52.424;10.840;2022-09-03T16:01:42;24.40;57.40
64869;DHT22;51349;52.424;10.840;2022-09-03T16:12:13;24.00;56.30
64869;DHT22;51349;52.424;10.840;2022-09-03T16:22:58;24.50;57.10
64869;DHT22;51349;52.424;10.840;2022-09-03T16:28:12;23.90;57.90
64869;DHT22;51349;52.424;10.840;2022-09-03T16:55:09;23.50;58.70
64869;DHT22;51349;52.424;10.840;2022-09-03T17:00:14;23.40;58.60
64869;DHT22;51349;52.424;10.840;2022-09-03T17:10:45;22.60;60.30
64869;DHT22;51349;52.424;10.840;2022-09-03T17:21:42;22.10;63.30
64869;DHT22;51349;52.424;10.840;2022-09-03T17:37:46;21.30;62.80
64869;DHT22;51349;52.424;10.840;2022-09-03T17:48:52;21.00;65.00
64869;DHT22;51349;52.424;10.840;2022-09-03T17:54:23;20.80;65.20
64869;DHT22;51349;52.424;10.840;2022-09-03T18:05:05;20.60;67.40
64869;DHT22;51349;52.424;10.840;2022-09-03T18:10:28;20.50;67.90
64869;DHT22;51349;52.424;10.840;2022-09-03T18:15:54;20.30;68.60
64869;DHT22;51349;52.424;10.840;2022-09-03T18:21:07;20.10;69.70
64869;DHT22;51349;52.424;10.840;2022-09-03T18:26:32;19.90;70.40
64869;DHT22;51349;52.424;10.840;2022-09-03T18:31:53;19.60;70.80
64869;DHT22;51349;52.424;10.840;2022-09-03T18:37:15;19.40;71.50
64869;DHT22;51349;52.424;10.840;2022-09-03T18:48:50;19.00;72.90
64869;DHT22;51349;52.424;10.840;2022-09-03T19:00:06;18.70;73.50
64869;DHT22;51349;52.424;10.840;2022-09-03T19:17:28;18.20;75.00
64869;DHT22;51349;52.424;10.840;2022-09-03T19:22:32;18.10;75.40
64869;DHT22;51349;52.424;10.840;2022-09-03T19:28:11;18.00;75.90
64869;DHT22;51349;52.424;10.840;2022-09-03T19:45:02;17.40;77.60
64869;DHT22;51349;52.424;10.840;2022-09-03T19:50:28;17.20;78.20
64869;DHT22;51349;52.424;10.840;2022-09-03T19:55:55;17.10;79.00
64869;DHT22;51349;52.424;10.840;2022-09-03T20:01:16;17.00;79.10
64869;DHT22;51349;52.424;10.840;2022-09-03T20:06:37;16.90;79.40
64869;DHT22;51349;52.424;10.840;2022-09-03T20:12:01;16.70;80.00
64869;DHT22;51349;52.424;10.840;2022-09-03T20:33:19;15.90;83.60
64869;DHT22;51349;52.424;10.840;2022-09-03T20:54:11;15.70;83.80
64869;DHT22;51349;52.424;10.840;2022-09-03T21:05:37;15.40;85.00
64869;DHT22;51349;52.424;10.840;2022-09-03T21:11:10;15.10;85.20
64869;DHT22;51349;52.424;10.840;2022-09-03T21:16:28;15.00;85.90
64869;DHT22;51349;52.424;10.840;2022-09-03T21:26:54;14.70;87.00
64869;DHT22;51349;52.424;10.840;2022-09-03T21:32:22;14.60;87.80
64869;DHT22;51349;52.424;10.840;2022-09-03T21:37:24;14.50;88.60
64869;DHT22;51349;52.424;10.840;2022-09-03T21:47:50;14.20;89.10
64869;DHT22;51349;52.424;10.840;2022-09-03T22:03:26;13.90;90.30
64869;DHT22;51349;52.424;10.840;2022-09-03T22:08:35;13.70;90.60
64869;DHT22;51349;52.424;10.840;2022-09-03T22:13:50;13.60;90.80
64869;DHT22;51349;52.424;10.840;2022-09-03T22:18:53;13.50;90.80
64869;DHT22;51349;52.424;10.840;2022-09-03T22:50:33;12.90;92.40
64869;DHT22;51349;52.424;10.840;2022-09-03T22:55:36;12.80;92.80
64869;DHT22;51349;52.424;10.840;2022-09-03T23:00:48;12.70;93.10
64869;DHT22;51349;52.424;10.840;2022-09-03T23:06:01;12.60;93.50
64869;DHT22;51349;52.424;10.840;2022-09-03T23:11:11;12.50;94.10
64869;DHT22;51349;52.424;10.840;2022-09-03T23:21:38;12.30;94.80
64869;DHT22;51349;52.424;10.840;2022-09-03T23:26:48;12.30;95.00
64869;DHT22;51349;52.424;10.840;2022-09-03T23:31:55;12.20;95.20
64869;DHT22;51349;52.424;10.840;2022-09-03T23:42:47;12.00;96.30
64869;DHT22;51349;52.424;10.840;2022-09-03T23:58:14;11.80;96.30
